PWSweather.com
Personal Weather Stations
Station Observations
CANDIOTINO
Barrio Candioti Norte, Santa FeAR 3000

Barrio Candioti NorteSanta FeAR 3000

Lat: -31.632778, Lon: -60.695556

Elevation: 69

Station Type: WH-1081

http://www.eltiempoensantafe.com.ar

High Low Average
Temperature 69.3°F20.7°C 51.6°F10.9°C 59.1°F15.1°C
Dew Point 55.8°F13.2°C 28.8°F-1.8°C 43.7°F6.5°C
Winds 16.8 mph 27.0 kmh Calm Calm 6.0 mph S9.7 kmh S
Wind Gusts 27.3 mph43.9 kmh 3.1 mph5.0 kmh 13.0 mph20.9 kmh
Humidity 89% 23% 60%
Pressure 30.18 in1022.0 mb 29.93 in1013.5 mb -
Precipitation 0.00 in0.0 mm - -
Hour Temp Dew Point Humidity Winds Wind Gusts Pressure Precip Precip Rate Daily Precip Total
12:00 AM 62.1°F16.7°C 55.8°F13.2°C 80% 13.6 mph S21.9 kmh S 24.4 mph39.3 kmh 29.93 in1013.5 mb 0.00 in0.0 mm 0.00 in0.0 mm 0.00 in0.0 mm
12:15 AM 61.5°F16.4°C 55.3°F12.9°C 80% 13.6 mph S21.9 kmh S 27.3 mph43.9 kmh 29.93 in1013.5 mb 0.00 in0.0 mm 0.00 in0.0 mm 0.00 in0.0 mm
12:30 AM 61.2°F16.2°C 55.6°F13.1°C 82% 16.8 mph S27.0 kmh S 22.1 mph35.6 kmh 29.94 in1013.9 mb 0.00 in0.0 mm 0.00 in0.0 mm 0.00 in0.0 mm
12:45 AM 61.2°F16.2°C 55.0°F12.8°C 80% 9.2 mph S14.8 kmh S 18.3 mph29.5 kmh 29.95 in1014.2 mb 0.00 in0.0 mm 0.00 in0.0 mm 0.00 in0.0 mm
01:00 AM 61.2°F16.2°C 55.0°F12.8°C 80% 6.0 mph S9.7 kmh S 17.4 mph28.0 kmh 29.95 in1014.2 mb 0.00 in0.0 mm 0.00 in0.0 mm 0.00 in0.0 mm
01:15 AM 61.0°F16.1°C 54.8°F12.7°C 80% 3.8 mph S6.1 kmh S 14.5 mph23.3 kmh 29.96 in1014.6 mb 0.00 in0.0 mm 0.00 in0.0 mm 0.00 in0.0 mm
01:30 AM 61.0°F16.1°C 54.8°F12.7°C 80% 7.6 mph S12.2 kmh S 13.6 mph21.9 kmh 29.97 in1014.9 mb 0.00 in0.0 mm 0.00 in0.0 mm 0.00 in0.0 mm
01:45 AM 60.4°F15.8°C 54.9°F12.7°C 82% 9.2 mph S14.8 kmh S 17.4 mph28.0 kmh 29.99 in1015.6 mb 0.00 in0.0 mm 0.00 in0.0 mm 0.00 in0.0 mm
02:00 AM 59.9°F15.5°C 54.4°F12.4°C 82% 7.6 mph S12.2 kmh S 19.7 mph31.7 kmh 29.99 in1015.6 mb 0.00 in0.0 mm 0.00 in0.0 mm 0.00 in0.0 mm
02:15 AM 59.2°F15.1°C 53.4°F11.9°C 81% 10.7 mph S17.2 kmh S 19.7 mph31.7 kmh 30.00 in1015.9 mb 0.00 in0.0 mm 0.00 in0.0 mm 0.00 in0.0 mm
02:30 AM 58.5°F14.7°C 52.7°F11.5°C 81% 6.9 mph S11.1 kmh S 19.7 mph31.7 kmh 30.00 in1015.9 mb 0.00 in0.0 mm 0.00 in0.0 mm 0.00 in0.0 mm
02:45 AM 57.9°F14.4°C 51.5°F10.8°C 79% 13.6 mph S21.9 kmh S 21.3 mph34.3 kmh 30.01 in1016.3 mb 0.00 in0.0 mm 0.00 in0.0 mm 0.00 in0.0 mm
03:00 AM 57.6°F14.2°C 51.1°F10.6°C 79% 11.4 mph SSW18.3 kmh SSW 19.0 mph30.6 kmh 30.03 in1016.9 mb 0.00 in0.0 mm 0.00 in0.0 mm 0.00 in0.0 mm
03:15 AM 57.0°F13.9°C 50.9°F10.5°C 80% 11.4 mph S18.3 kmh S 21.3 mph34.3 kmh 30.02 in1016.6 mb 0.00 in0.0 mm 0.00 in0.0 mm 0.00 in0.0 mm
03:30 AM 56.5°F13.6°C 50.4°F10.2°C 80% 9.8 mph SSW15.8 kmh SSW 18.3 mph29.5 kmh 30.03 in1016.9 mb 0.00 in0.0 mm 0.00 in0.0 mm 0.00 in0.0 mm
03:45 AM 56.1°F13.4°C 50.4°F10.2°C 81% 6.9 mph S11.1 kmh S 13.6 mph21.9 kmh 30.04 in1017.3 mb 0.00 in0.0 mm 0.00 in0.0 mm 0.00 in0.0 mm
04:00 AM 55.9°F13.3°C 50.5°F10.3°C 82% 6.9 mph S11.1 kmh S 17.4 mph28.0 kmh 30.03 in1016.9 mb 0.00 in0.0 mm 0.00 in0.0 mm 0.00 in0.0 mm
04:15 AM 55.4°F13.0°C 50.0°F10.0°C 82% 8.3 mph S13.4 kmh S 17.4 mph28.0 kmh 30.05 in1017.6 mb 0.00 in0.0 mm 0.00 in0.0 mm 0.00 in0.0 mm
04:30 AM 54.9°F12.7°C 49.5°F9.7°C 82% 9.8 mph S15.8 kmh S 15.9 mph25.6 kmh 30.04 in1017.3 mb 0.00 in0.0 mm 0.00 in0.0 mm 0.00 in0.0 mm
04:45 AM 54.1°F12.3°C 49.1°F9.5°C 83% 6.0 mph S9.7 kmh S 16.8 mph27.0 kmh 30.05 in1017.6 mb 0.00 in0.0 mm 0.00 in0.0 mm 0.00 in0.0 mm
05:00 AM 53.8°F12.1°C 49.1°F9.5°C 84% 6.9 mph S11.1 kmh S 13.0 mph20.9 kmh 30.05 in1017.6 mb 0.00 in0.0 mm 0.00 in0.0 mm 0.00 in0.0 mm
05:15 AM 53.6°F12.0°C 49.2°F9.6°C 85% 5.4 mph S8.7 kmh S 14.5 mph23.3 kmh 30.05 in1017.6 mb 0.00 in0.0 mm 0.00 in0.0 mm 0.00 in0.0 mm
05:30 AM 53.2°F11.8°C 49.2°F9.6°C 86% 7.6 mph SW12.2 kmh SW 15.2 mph24.5 kmh 30.05 in1017.6 mb 0.00 in0.0 mm 0.00 in0.0 mm 0.00 in0.0 mm
05:45 AM 53.1°F11.7°C 49.3°F9.6°C 87% 6.0 mph S9.7 kmh S 13.0 mph20.9 kmh 30.05 in1017.6 mb 0.00 in0.0 mm 0.00 in0.0 mm 0.00 in0.0 mm
06:00 AM 52.9°F11.6°C 49.1°F9.5°C 87% 6.9 mph S11.1 kmh S 13.6 mph21.9 kmh 30.06 in1017.9 mb 0.00 in0.0 mm 0.00 in0.0 mm 0.00 in0.0 mm
06:15 AM 52.5°F11.4°C 48.8°F9.3°C 87% 3.1 mph SSW5.0 kmh SSW 11.4 mph18.3 kmh 30.07 in1018.3 mb 0.00 in0.0 mm 0.00 in0.0 mm 0.00 in0.0 mm
06:30 AM 51.8°F11.0°C 48.4°F9.1°C 88% 5.4 mph S8.7 kmh S 10.7 mph17.2 kmh 30.07 in1018.3 mb 0.00 in0.0 mm 0.00 in0.0 mm 0.00 in0.0 mm
06:45 AM 51.6°F10.9°C 48.5°F9.2°C 89% 3.1 mph SW5.0 kmh SW 8.3 mph13.4 kmh 30.08 in1018.6 mb 0.00 in0.0 mm 0.00 in0.0 mm 0.00 in0.0 mm
07:00 AM 51.6°F10.9°C 48.5°F9.2°C 89% 2.2 mph SW3.5 kmh SW 9.8 mph15.8 kmh 30.09 in1019.0 mb 0.00 in0.0 mm 0.00 in0.0 mm 0.00 in0.0 mm
07:15 AM 51.8°F11.0°C 47.8°F8.8°C 86% 4.5 mph SW7.2 kmh SW 7.6 mph12.2 kmh 30.09 in1019.0 mb 0.00 in0.0 mm 0.00 in0.0 mm 0.00 in0.0 mm
07:30 AM 52.2°F11.2°C 47.2°F8.4°C 83% 1.6 mph SW2.6 kmh SW 8.3 mph13.4 kmh 30.10 in1019.3 mb 0.00 in0.0 mm 0.00 in0.0 mm 0.00 in0.0 mm
07:45 AM 51.6°F10.9°C 46.3°F7.9°C 82% 5.4 mph S8.7 kmh S 11.4 mph18.3 kmh 30.10 in1019.3 mb 0.00 in0.0 mm 0.00 in0.0 mm 0.00 in0.0 mm
08:00 AM 51.6°F10.9°C 46.6°F8.1°C 83% 3.8 mph S6.1 kmh S 9.8 mph15.8 kmh 30.11 in1019.6 mb 0.00 in0.0 mm 0.00 in0.0 mm 0.00 in0.0 mm
08:15 AM 51.8°F11.0°C 46.5°F8.1°C 82% 3.8 mph SW6.1 kmh SW 11.4 mph18.3 kmh 30.12 in1020.0 mb 0.00 in0.0 mm 0.00 in0.0 mm 0.00 in0.0 mm
08:30 AM 52.9°F11.6°C 46.9°F8.3°C 80% 7.6 mph S12.2 kmh S 16.8 mph27.0 kmh 30.12 in1020.0 mb 0.00 in0.0 mm 0.00 in0.0 mm 0.00 in0.0 mm
08:45 AM 53.8°F12.1°C 46.1°F7.8°C 75% 11.4 mph SSW18.3 kmh SSW 15.9 mph25.6 kmh 30.13 in1020.3 mb 0.00 in0.0 mm 0.00 in0.0 mm 0.00 in0.0 mm
09:00 AM 53.8°F12.1°C 45.0°F7.2°C 72% 6.0 mph SSW9.7 kmh SSW 14.5 mph23.3 kmh 30.13 in1020.3 mb 0.00 in0.0 mm 0.00 in0.0 mm 0.00 in0.0 mm
09:15 AM 53.4°F11.9°C 44.6°F7.0°C 72% 8.3 mph SSW13.4 kmh SSW 16.8 mph27.0 kmh 30.13 in1020.3 mb 0.00 in0.0 mm 0.00 in0.0 mm 0.00 in0.0 mm
09:30 AM 54.5°F12.5°C 43.8°F6.6°C 67% 10.7 mph S17.2 kmh S 17.4 mph28.0 kmh 30.14 in1020.7 mb 0.00 in0.0 mm 0.00 in0.0 mm 0.00 in0.0 mm
09:45 AM 55.2°F12.9°C 42.9°F6.1°C 63% 6.9 mph SSW11.1 kmh SSW 18.3 mph29.5 kmh 30.14 in1020.7 mb 0.00 in0.0 mm 0.00 in0.0 mm 0.00 in0.0 mm
10:00 AM 55.0°F12.8°C 41.8°F5.4°C 61% 11.4 mph SSW18.3 kmh SSW 19.7 mph31.7 kmh 30.16 in1021.3 mb 0.00 in0.0 mm 0.00 in0.0 mm 0.00 in0.0 mm
10:15 AM 55.4°F13.0°C 41.8°F5.4°C 60% 10.7 mph SSW17.2 kmh SSW 18.3 mph29.5 kmh 30.17 in1021.7 mb 0.00 in0.0 mm 0.00 in0.0 mm 0.00 in0.0 mm
10:30 AM 56.3°F13.5°C 41.7°F5.4°C 58% 9.8 mph SSW15.8 kmh SSW 18.3 mph29.5 kmh 30.17 in1021.7 mb 0.00 in0.0 mm 0.00 in0.0 mm 0.00 in0.0 mm
10:45 AM 57.6°F14.2°C 41.5°F5.3°C 55% 13.0 mph S20.9 kmh S 19.0 mph30.6 kmh 30.17 in1021.7 mb 0.00 in0.0 mm 0.00 in0.0 mm 0.00 in0.0 mm
11:00 AM 59.4°F15.2°C 41.2°F5.1°C 51% 7.6 mph S12.2 kmh S 13.6 mph21.9 kmh 30.16 in1021.3 mb 0.00 in0.0 mm 0.00 in0.0 mm 0.00 in0.0 mm
11:15 AM 59.5°F15.3°C 41.4°F5.2°C 51% 6.0 mph SSW9.7 kmh SSW 15.2 mph24.5 kmh 30.18 in1022.0 mb 0.00 in0.0 mm 0.00 in0.0 mm 0.00 in0.0 mm
11:30 AM 59.2°F15.1°C 41.1°F5.1°C 51% 9.8 mph SSW15.8 kmh SSW 15.9 mph25.6 kmh 30.17 in1021.7 mb 0.00 in0.0 mm 0.00 in0.0 mm 0.00 in0.0 mm
11:45 AM 59.7°F15.4°C 42.1°F5.6°C 52% 5.4 mph S8.7 kmh S 17.4 mph28.0 kmh 30.17 in1021.7 mb 0.00 in0.0 mm 0.00 in0.0 mm 0.00 in0.0 mm
12:00 PM 61.0°F16.1°C 41.7°F5.4°C 49% 9.2 mph SW14.8 kmh SW 19.0 mph30.6 kmh 30.17 in1021.7 mb 0.00 in0.0 mm 0.00 in0.0 mm 0.00 in0.0 mm
12:15 PM 60.8°F16.0°C 42.1°F5.6°C 50% 4.5 mph S7.2 kmh S 15.2 mph24.5 kmh 30.18 in1022.0 mb 0.00 in0.0 mm 0.00 in0.0 mm 0.00 in0.0 mm
12:30 PM 61.7°F16.5°C 41.8°F5.4°C 48% 8.3 mph SW13.4 kmh SW 14.5 mph23.3 kmh 30.17 in1021.7 mb 0.00 in0.0 mm 0.00 in0.0 mm 0.00 in0.0 mm
12:45 PM 62.1°F16.7°C 42.7°F5.9°C 49% 3.8 mph SW6.1 kmh SW 15.9 mph25.6 kmh 30.17 in1021.7 mb 0.00 in0.0 mm 0.00 in0.0 mm 0.00 in0.0 mm
01:00 PM 62.8°F17.1°C 42.8°F6.0°C 48% 8.3 mph S13.4 kmh S 15.2 mph24.5 kmh 30.16 in1021.3 mb 0.00 in0.0 mm 0.00 in0.0 mm 0.00 in0.0 mm
01:15 PM 63.9°F17.7°C 43.3°F6.3°C 47% 3.1 mph W5.0 kmh W 9.8 mph15.8 kmh 30.16 in1021.3 mb 0.00 in0.0 mm 0.00 in0.0 mm 0.00 in0.0 mm
01:30 PM 64.6°F18.1°C 43.9°F6.6°C 47% 8.3 mph S13.4 kmh S 12.1 mph19.5 kmh 30.16 in1021.3 mb 0.00 in0.0 mm 0.00 in0.0 mm 0.00 in0.0 mm
01:45 PM 66.0°F18.9°C 45.2°F7.3°C 47% 6.9 mph S11.1 kmh S 11.4 mph18.3 kmh 30.15 in1021.0 mb 0.00 in0.0 mm 0.00 in0.0 mm 0.00 in0.0 mm
02:00 PM 65.8°F18.8°C 44.5°F6.9°C 46% 7.6 mph SSW12.2 kmh SSW 13.0 mph20.9 kmh 30.15 in1021.0 mb 0.00 in0.0 mm 0.00 in0.0 mm 0.00 in0.0 mm
02:15 PM 67.3°F19.6°C 44.6°F7.0°C 44% 8.3 mph S13.4 kmh S 13.0 mph20.9 kmh 30.15 in1021.0 mb 0.00 in0.0 mm 0.00 in0.0 mm 0.00 in0.0 mm
02:30 PM 66.9°F19.4°C 43.7°F6.5°C 43% 4.5 mph S7.2 kmh S 13.0 mph20.9 kmh 30.14 in1020.7 mb 0.00 in0.0 mm 0.00 in0.0 mm 0.00 in0.0 mm
02:45 PM 68.0°F20.0°C 41.5°F5.3°C 38% 8.3 mph SSW13.4 kmh SSW 13.6 mph21.9 kmh 30.14 in1020.7 mb 0.00 in0.0 mm 0.00 in0.0 mm 0.00 in0.0 mm
03:00 PM 67.5°F19.7°C 41.7°F5.4°C 39% 7.6 mph S12.2 kmh S 13.6 mph21.9 kmh 30.14 in1020.7 mb 0.00 in0.0 mm 0.00 in0.0 mm 0.00 in0.0 mm
03:15 PM 68.4°F20.2°C 38.2°F3.4°C 33% 6.9 mph S11.1 kmh S 13.6 mph21.9 kmh 30.14 in1020.7 mb 0.00 in0.0 mm 0.00 in0.0 mm 0.00 in0.0 mm
03:30 PM 68.5°F20.3°C 35.9°F2.2°C 30% 11.4 mph S18.3 kmh S 15.9 mph25.6 kmh 30.13 in1020.3 mb 0.00 in0.0 mm 0.00 in0.0 mm 0.00 in0.0 mm
03:45 PM 68.0°F20.0°C 32.8°F0.4°C 27% 6.9 mph S11.1 kmh S 18.3 mph29.5 kmh 30.13 in1020.3 mb 0.00 in0.0 mm 0.00 in0.0 mm 0.00 in0.0 mm
04:00 PM 68.2°F20.1°C 33.9°F1.1°C 28% 7.6 mph S12.2 kmh S 15.2 mph24.5 kmh 30.13 in1020.3 mb 0.00 in0.0 mm 0.00 in0.0 mm 0.00 in0.0 mm
04:15 PM 69.3°F20.7°C 32.0°F0.0°C 25% 9.8 mph SW15.8 kmh SW 19.7 mph31.7 kmh 30.12 in1020.0 mb 0.00 in0.0 mm 0.00 in0.0 mm 0.00 in0.0 mm
04:30 PM 68.4°F20.2°C 33.1°F0.6°C 27% 5.4 mph S8.7 kmh S 15.9 mph25.6 kmh 30.12 in1020.0 mb 0.00 in0.0 mm 0.00 in0.0 mm 0.00 in0.0 mm
04:45 PM 67.8°F19.9°C 34.4°F1.3°C 29% 3.8 mph SSW6.1 kmh SSW 15.9 mph25.6 kmh 30.12 in1020.0 mb 0.00 in0.0 mm 0.00 in0.0 mm 0.00 in0.0 mm
05:00 PM 68.2°F20.1°C 31.0°F-0.6°C 25% 7.6 mph SE12.2 kmh SE 12.1 mph19.5 kmh 30.11 in1019.6 mb 0.00 in0.0 mm 0.00 in0.0 mm 0.00 in0.0 mm
05:15 PM 68.0°F20.0°C 28.8°F-1.8°C 23% 4.5 mph SSE7.2 kmh SSE 14.5 mph23.3 kmh 30.11 in1019.6 mb 0.00 in0.0 mm 0.00 in0.0 mm 0.00 in0.0 mm
05:30 PM 68.0°F20.0°C 29.9°F-1.2°C 24% 6.9 mph S11.1 kmh S 10.7 mph17.2 kmh 30.12 in1020.0 mb 0.00 in0.0 mm 0.00 in0.0 mm 0.00 in0.0 mm
05:45 PM 67.6°F19.8°C 30.6°F-0.8°C 25% 6.9 mph S11.1 kmh S 10.7 mph17.2 kmh 30.11 in1019.6 mb 0.00 in0.0 mm 0.00 in0.0 mm 0.00 in0.0 mm
06:00 PM 67.3°F19.6°C 32.2°F0.1°C 27% 3.8 mph S6.1 kmh S 9.8 mph15.8 kmh 30.13 in1020.3 mb 0.00 in0.0 mm 0.00 in0.0 mm 0.00 in0.0 mm
06:15 PM 66.4°F19.1°C 32.3°F0.2°C 28% 4.5 mph S7.2 kmh S 7.6 mph12.2 kmh 30.12 in1020.0 mb 0.00 in0.0 mm 0.00 in0.0 mm 0.00 in0.0 mm
06:30 PM 64.6°F18.1°C 35.6°F2.0°C 34% 4.5 mph S7.2 kmh S 6.9 mph11.1 kmh 30.12 in1020.0 mb 0.00 in0.0 mm 0.00 in0.0 mm 0.00 in0.0 mm
06:45 PM 62.1°F16.7°C 35.5°F1.9°C 37% 0.7 mph SSW1.1 kmh SSW 4.5 mph7.2 kmh 30.12 in1020.0 mb 0.00 in0.0 mm 0.00 in0.0 mm 0.00 in0.0 mm
07:00 PM 61.0°F16.1°C 37.1°F2.8°C 41% 0.7 mph SSE1.1 kmh SSE 4.5 mph7.2 kmh 30.12 in1020.0 mb 0.00 in0.0 mm 0.00 in0.0 mm 0.00 in0.0 mm
07:15 PM 60.6°F15.9°C 38.0°F3.3°C 43% 1.6 mph S2.6 kmh S 5.4 mph8.7 kmh 30.12 in1020.0 mb 0.00 in0.0 mm 0.00 in0.0 mm 0.00 in0.0 mm
07:30 PM 60.1°F15.6°C 38.1°F3.4°C 44% 2.2 mph SSE3.5 kmh SSE 6.9 mph11.1 kmh 30.13 in1020.3 mb 0.00 in0.0 mm 0.00 in0.0 mm 0.00 in0.0 mm
07:45 PM 59.4°F15.2°C 38.6°F3.7°C 46% 2.2 mph S3.5 kmh S 4.5 mph7.2 kmh 30.13 in1020.3 mb 0.00 in0.0 mm 0.00 in0.0 mm 0.00 in0.0 mm
08:00 PM 59.0°F15.0°C 39.4°F4.1°C 48% 2.2 mph SE3.5 kmh SE 5.4 mph8.7 kmh 30.13 in1020.3 mb 0.00 in0.0 mm 0.00 in0.0 mm 0.00 in0.0 mm
08:15 PM 58.5°F14.7°C 39.9°F4.4°C 50% Calm Calm 4.5 mph7.2 kmh 30.14 in1020.7 mb 0.00 in0.0 mm 0.00 in0.0 mm 0.00 in0.0 mm
08:30 PM 57.7°F14.3°C 39.7°F4.3°C 51% 0.7 mph SE1.1 kmh SE 3.8 mph6.1 kmh 30.14 in1020.7 mb 0.00 in0.0 mm 0.00 in0.0 mm 0.00 in0.0 mm
08:45 PM 57.0°F13.9°C 39.6°F4.2°C 52% 0.7 mph SE1.1 kmh SE 3.1 mph5.0 kmh 30.13 in1020.3 mb 0.00 in0.0 mm 0.00 in0.0 mm 0.00 in0.0 mm
09:00 PM 56.8°F13.8°C 39.4°F4.1°C 52% 2.2 mph S3.5 kmh S 4.5 mph7.2 kmh 30.14 in1020.7 mb 0.00 in0.0 mm 0.00 in0.0 mm 0.00 in0.0 mm
09:15 PM 56.7°F13.7°C 40.2°F4.6°C 54% 1.6 mph SE2.6 kmh SE 6.0 mph9.7 kmh 30.15 in1021.0 mb 0.00 in0.0 mm 0.00 in0.0 mm 0.00 in0.0 mm
09:30 PM 56.5°F13.6°C 40.5°F4.7°C 55% 0.7 mph SW1.1 kmh SW 4.5 mph7.2 kmh 30.16 in1021.3 mb 0.00 in0.0 mm 0.00 in0.0 mm 0.00 in0.0 mm
09:45 PM 56.3°F13.5°C 40.8°F4.9°C 56% 3.8 mph SSE6.1 kmh SSE 6.0 mph9.7 kmh 30.15 in1021.0 mb 0.00 in0.0 mm 0.00 in0.0 mm 0.00 in0.0 mm
10:00 PM 55.8°F13.2°C 41.2°F5.1°C 58% 1.6 mph SSE2.6 kmh SSE 4.5 mph7.2 kmh 30.16 in1021.3 mb 0.00 in0.0 mm 0.00 in0.0 mm 0.00 in0.0 mm
10:15 PM 55.4°F13.0°C 41.3°F5.2°C 59% 2.2 mph SSE3.5 kmh SSE 3.8 mph6.1 kmh 30.16 in1021.3 mb 0.00 in0.0 mm 0.00 in0.0 mm 0.00 in0.0 mm
10:30 PM 54.9°F12.7°C 41.7°F5.4°C 61% 1.6 mph SE2.6 kmh SE 3.8 mph6.1 kmh 30.17 in1021.7 mb 0.00 in0.0 mm 0.00 in0.0 mm 0.00 in0.0 mm
10:45 PM 54.7°F12.6°C 41.5°F5.3°C 61% 1.6 mph S2.6 kmh S 3.8 mph6.1 kmh 30.16 in1021.3 mb 0.00 in0.0 mm 0.00 in0.0 mm 0.00 in0.0 mm
11:00 PM 54.3°F12.4°C 41.6°F5.3°C 62% 3.8 mph SE6.1 kmh SE 4.5 mph7.2 kmh 30.17 in1021.7 mb 0.00 in0.0 mm 0.00 in0.0 mm 0.00 in0.0 mm
11:15 PM 54.3°F12.4°C 41.6°F5.3°C 62% 3.1 mph S5.0 kmh S 5.4 mph8.7 kmh 30.17 in1021.7 mb 0.00 in0.0 mm 0.00 in0.0 mm 0.00 in0.0 mm
11:30 PM 53.6°F12.0°C 41.3°F5.2°C 63% 1.6 mph SE2.6 kmh SE 3.8 mph6.1 kmh 30.17 in1021.7 mb 0.00 in0.0 mm 0.00 in0.0 mm 0.00 in0.0 mm
11:45 PM 53.4°F11.9°C 42.0°F5.6°C 65% 3.1 mph SSE5.0 kmh SSE 6.0 mph9.7 kmh 30.18 in1022.0 mb 0.00 in0.0 mm 0.00 in0.0 mm 0.00 in0.0 mm